Terminal Aerodrome Forecast
Issued by NWS

Home | Current Version | Previous Version | Text Only | Print | Product List | Glossary On
Versions: 1 2 3 4 5 6 7 8 9 10 11 12 13 14 15 16 17 18 19 20 21 22
000
FTUS41 KBGM 061100
TAFITH
TAF
KITH 061129Z 0612/0712 21004KT P6SM FEW020
      TEMPO 0612/0614 BKN012
     FM062300 19007KT P6SM BKN200
     FM070800 16006KT P6SM OVC050=

USA.gov is the U.S. government's official web portal to all federal, state and local government web resources and services.